sensor_id;sensor_type;location;lat;lon;timestamp;P1;durP1;ratioP1;P2;durP2;ratioP2
6860;SDS011;3469;47.060;15.460;2023-04-25T00:00:56;6.27;;;4.80;;
6860;SDS011;3469;47.060;15.460;2023-04-25T00:03:28;5.73;;;4.57;;
6860;SDS011;3469;47.060;15.460;2023-04-25T00:05:57;4.57;;;4.13;;
6860;SDS011;3469;47.060;15.460;2023-04-25T00:08:28;5.40;;;4.90;;
6860;SDS011;3469;47.060;15.460;2023-04-25T00:10:57;6.00;;;5.40;;
6860;SDS011;3469;47.060;15.460;2023-04-25T00:13:26;6.37;;;5.00;;
6860;SDS011;3469;47.060;15.460;2023-04-25T00:15:55;5.43;;;4.93;;
6860;SDS011;3469;47.060;15.460;2023-04-25T00:18:24;7.00;;;5.80;;
6860;SDS011;3469;47.060;15.460;2023-04-25T00:20:56;4.77;;;4.37;;
6860;SDS011;3469;47.060;15.460;2023-04-25T00:23:24;5.87;;;5.13;;
6860;SDS011;3469;47.060;15.460;2023-04-25T00:25:53;7.43;;;5.07;;
6860;SDS011;3469;47.060;15.460;2023-04-25T00:28:21;4.90;;;4.10;;
6860;SDS011;3469;47.060;15.460;2023-04-25T00:30:50;8.17;;;5.03;;
6860;SDS011;3469;47.060;15.460;2023-04-25T00:33:18;5.90;;;4.40;;
6860;SDS011;3469;47.060;15.460;2023-04-25T00:35:46;5.60;;;5.10;;
6860;SDS011;3469;47.060;15.460;2023-04-25T00:38:16;4.90;;;4.30;;
6860;SDS011;3469;47.060;15.460;2023-04-25T00:40:44;4.60;;;4.20;;
6860;SDS011;3469;47.060;15.460;2023-04-25T00:43:13;5.03;;;4.23;;
6860;SDS011;3469;47.060;15.460;2023-04-25T00:45:41;5.57;;;4.80;;
6860;SDS011;3469;47.060;15.460;2023-04-25T00:48:11;8.43;;;4.73;;
6860;SDS011;3469;47.060;15.460;2023-04-25T00:50:40;6.17;;;5.03;;
6860;SDS011;3469;47.060;15.460;2023-04-25T00:53:09;5.10;;;4.60;;
6860;SDS011;3469;47.060;15.460;2023-04-25T00:55:39;8.33;;;4.70;;
6860;SDS011;3469;47.060;15.460;2023-04-25T00:58:07;6.30;;;5.40;;
6860;SDS011;3469;47.060;15.460;2023-04-25T01:00:36;5.43;;;4.83;;
6860;SDS011;3469;47.060;15.460;2023-04-25T01:03:04;7.00;;;5.27;;
6860;SDS011;3469;47.060;15.460;2023-04-25T01:05:33;5.23;;;4.57;;
6860;SDS011;3469;47.060;15.460;2023-04-25T01:08:02;7.07;;;4.17;;
6860;SDS011;3469;47.060;15.460;2023-04-25T01:10:30;5.77;;;3.93;;
6860;SDS011;3469;47.060;15.460;2023-04-25T01:13:00;6.73;;;5.70;;
6860;SDS011;3469;47.060;15.460;2023-04-25T01:15:28;5.67;;;5.07;;
6860;SDS011;3469;47.060;15.460;2023-04-25T01:17:57;6.07;;;4.50;;
6860;SDS011;3469;47.060;15.460;2023-04-25T01:20:27;7.90;;;5.57;;
6860;SDS011;3469;47.060;15.460;2023-04-25T01:22:58;8.23;;;6.23;;
6860;SDS011;3469;47.060;15.460;2023-04-25T01:25:27;6.60;;;5.67;;
6860;SDS011;3469;47.060;15.460;2023-04-25T01:27:56;7.10;;;5.77;;
6860;SDS011;3469;47.060;15.460;2023-04-25T01:30:25;9.67;;;4.97;;
6860;SDS011;3469;47.060;15.460;2023-04-25T01:32:55;6.17;;;5.40;;
6860;SDS011;3469;47.060;15.460;2023-04-25T01:35:24;7.10;;;5.80;;
6860;SDS011;3469;47.060;15.460;2023-04-25T01:37:53;6.07;;;5.10;;
6860;SDS011;3469;47.060;15.460;2023-04-25T01:40:22;7.27;;;5.77;;
6860;SDS011;3469;47.060;15.460;2023-04-25T01:42:52;7.47;;;5.77;;
6860;SDS011;3469;47.060;15.460;2023-04-25T01:45:20;6.60;;;5.10;;
6860;SDS011;3469;47.060;15.460;2023-04-25T01:47:49;6.10;;;5.50;;
6860;SDS011;3469;47.060;15.460;2023-04-25T01:50:18;6.37;;;4.73;;
6860;SDS011;3469;47.060;15.460;2023-04-25T01:52:47;8.90;;;6.00;;
6860;SDS011;3469;47.060;15.460;2023-04-25T01:55:18;8.20;;;5.03;;
6860;SDS011;3469;47.060;15.460;2023-04-25T01:57:59;9.90;;;5.10;;
6860;SDS011;3469;47.060;15.460;2023-04-25T02:00:50;5.83;;;4.27;;
6860;SDS011;3469;47.060;15.460;2023-04-25T02:03:18;6.83;;;5.60;;
6860;SDS011;3469;47.060;15.460;2023-04-25T02:05:48;5.53;;;4.60;;
6860;SDS011;3469;47.060;15.460;2023-04-25T02:08:16;4.70;;;4.10;;
6860;SDS011;3469;47.060;15.460;2023-04-25T02:10:45;4.57;;;3.67;;
6860;SDS011;3469;47.060;15.460;2023-04-25T02:13:18;5.83;;;4.17;;
6860;SDS011;3469;47.060;15.460;2023-04-25T02:16:10;6.97;;;3.97;;
6860;SDS011;3469;47.060;15.460;2023-04-25T02:18:38;4.10;;;3.20;;
6860;SDS011;3469;47.060;15.460;2023-04-25T02:21:06;3.60;;;3.30;;
6860;SDS011;3469;47.060;15.460;2023-04-25T02:23:35;6.50;;;4.63;;
6860;SDS011;3469;47.060;15.460;2023-04-25T02:26:03;5.80;;;3.90;;
6860;SDS011;3469;47.060;15.460;2023-04-25T02:28:33;4.33;;;3.87;;
6860;SDS011;3469;47.060;15.460;2023-04-25T02:31:03;5.30;;;3.47;;
6860;SDS011;3469;47.060;15.460;2023-04-25T02:33:32;6.73;;;4.50;;
6860;SDS011;3469;47.060;15.460;2023-04-25T02:36:01;5.50;;;4.33;;
6860;SDS011;3469;47.060;15.460;2023-04-25T02:38:29;4.60;;;3.70;;
6860;SDS011;3469;47.060;15.460;2023-04-25T02:40:58;6.13;;;3.30;;
6860;SDS011;3469;47.060;15.460;2023-04-25T02:43:26;6.13;;;4.03;;
6860;SDS011;3469;47.060;15.460;2023-04-25T02:45:56;7.63;;;3.13;;
6860;SDS011;3469;47.060;15.460;2023-04-25T02:48:25;4.03;;;3.27;;
6860;SDS011;3469;47.060;15.460;2023-04-25T02:50:54;4.50;;;3.40;;
6860;SDS011;3469;47.060;15.460;2023-04-25T02:53:22;3.87;;;3.53;;
6860;SDS011;3469;47.060;15.460;2023-04-25T02:55:52;4.57;;;3.20;;
6860;SDS011;3469;47.060;15.460;2023-04-25T02:58:21;4.63;;;2.90;;
6860;SDS011;3469;47.060;15.460;2023-04-25T03:00:51;3.73;;;2.63;;
6860;SDS011;3469;47.060;15.460;2023-04-25T03:03:21;5.23;;;3.80;;
6860;SDS011;3469;47.060;15.460;2023-04-25T03:05:51;3.60;;;2.70;;
6860;SDS011;3469;47.060;15.460;2023-04-25T03:08:27;4.03;;;2.93;;
6860;SDS011;3469;47.060;15.460;2023-04-25T03:11:00;3.60;;;2.67;;
6860;SDS011;3469;47.060;15.460;2023-04-25T03:13:28;6.40;;;3.07;;
6860;SDS011;3469;47.060;15.460;2023-04-25T03:15:57;6.03;;;3.07;;
6860;SDS011;3469;47.060;15.460;2023-04-25T03:18:27;4.13;;;2.83;;
6860;SDS011;3469;47.060;15.460;2023-04-25T03:20:56;6.70;;;2.80;;
6860;SDS011;3469;47.060;15.460;2023-04-25T03:23:24;7.83;;;5.70;;
6860;SDS011;3469;47.060;15.460;2023-04-25T03:25:52;6.17;;;4.83;;
6860;SDS011;3469;47.060;15.460;2023-04-25T03:28:21;6.40;;;4.83;;
6860;SDS011;3469;47.060;15.460;2023-04-25T03:30:50;7.63;;;4.40;;
6860;SDS011;3469;47.060;15.460;2023-04-25T03:33:18;7.17;;;4.80;;
6860;SDS011;3469;47.060;15.460;2023-04-25T03:35:51;8.57;;;5.70;;
6860;SDS011;3469;47.060;15.460;2023-04-25T03:38:19;7.83;;;4.63;;
6860;SDS011;3469;47.060;15.460;2023-04-25T03:40:49;5.53;;;4.00;;
6860;SDS011;3469;47.060;15.460;2023-04-25T03:43:33;5.10;;;3.80;;
6860;SDS011;3469;47.060;15.460;2023-04-25T03:46:06;10.73;;;3.73;;
6860;SDS011;3469;47.060;15.460;2023-04-25T03:48:35;5.93;;;3.73;;
6860;SDS011;3469;47.060;15.460;2023-04-25T03:51:04;7.20;;;4.80;;
6860;SDS011;3469;47.060;15.460;2023-04-25T03:53:36;9.13;;;5.90;;
6860;SDS011;3469;47.060;15.460;2023-04-25T03:56:23;9.63;;;5.40;;
6860;SDS011;3469;47.060;15.460;2023-04-25T03:58:59;13.30;;;6.00;;
6860;SDS011;3469;47.060;15.460;2023-04-25T04:01:29;18.07;;;6.70;;
6860;SDS011;3469;47.060;15.460;2023-04-25T04:03:57;9.20;;;5.80;;
6860;SDS011;3469;47.060;15.460;2023-04-25T04:06:28;16.80;;;6.60;;
6860;SDS011;3469;47.060;15.460;2023-04-25T04:09:03;11.27;;;7.57;;
6860;SDS011;3469;47.060;15.460;2023-04-25T04:11:36;46.27;;;10.40;;
6860;SDS011;3469;47.060;15.460;2023-04-25T04:14:05;27.53;;;9.97;;
6860;SDS011;3469;47.060;15.460;2023-04-25T04:16:36;15.80;;;7.37;;
6860;SDS011;3469;47.060;15.460;2023-04-25T04:19:04;16.33;;;7.13;;
6860;SDS011;3469;47.060;15.460;2023-04-25T04:21:35;47.63;;;13.23;;
6860;SDS011;3469;47.060;15.460;2023-04-25T04:24:03;8.70;;;4.10;;
6860;SDS011;3469;47.060;15.460;2023-04-25T04:26:45;23.67;;;7.57;;
6860;SDS011;3469;47.060;15.460;2023-04-25T04:29:43;11.63;;;5.67;;
6860;SDS011;3469;47.060;15.460;2023-04-25T04:32:22;12.23;;;5.30;;
6860;SDS011;3469;47.060;15.460;2023-04-25T04:34:52;15.27;;;6.63;;
6860;SDS011;3469;47.060;15.460;2023-04-25T04:37:24;15.50;;;6.67;;
6860;SDS011;3469;47.060;15.460;2023-04-25T04:39:52;7.40;;;5.53;;
6860;SDS011;3469;47.060;15.460;2023-04-25T04:42:29;8.80;;;5.67;;
6860;SDS011;3469;47.060;15.460;2023-04-25T04:44:58;5.77;;;4.33;;
6860;SDS011;3469;47.060;15.460;2023-04-25T04:47:58;7.57;;;5.07;;
6860;SDS011;3469;47.060;15.460;2023-04-25T04:51:02;6.63;;;4.90;;
6860;SDS011;3469;47.060;15.460;2023-04-25T04:53:49;6.60;;;5.20;;
6860;SDS011;3469;47.060;15.460;2023-04-25T04:56:33;25.80;;;5.77;;
6860;SDS011;3469;47.060;15.460;2023-04-25T04:59:20;14.70;;;5.97;;
6860;SDS011;3469;47.060;15.460;2023-04-25T05:02:01;13.03;;;6.07;;
6860;SDS011;3469;47.060;15.460;2023-04-25T05:04:35;13.17;;;6.77;;
6860;SDS011;3469;47.060;15.460;2023-04-25T05:07:18;19.73;;;7.10;;
6860;SDS011;3469;47.060;15.460;2023-04-25T05:10:08;9.33;;;6.17;;
6860;SDS011;3469;47.060;15.460;2023-04-25T05:13:03;35.70;;;8.40;;
6860;SDS011;3469;47.060;15.460;2023-04-25T05:15:34;16.00;;;7.37;;
6860;SDS011;3469;47.060;15.460;2023-04-25T05:18:25;8.73;;;5.77;;
6860;SDS011;3469;47.060;15.460;2023-04-25T05:21:16;9.53;;;6.73;;
6860;SDS011;3469;47.060;15.460;2023-04-25T05:24:03;6.63;;;5.13;;
6860;SDS011;3469;47.060;15.460;2023-04-25T05:26:45;8.13;;;5.30;;
6860;SDS011;3469;47.060;15.460;2023-04-25T05:29:33;7.53;;;5.03;;
6860;SDS011;3469;47.060;15.460;2023-04-25T05:32:25;7.73;;;5.20;;
6860;SDS011;3469;47.060;15.460;2023-04-25T05:34:54;8.60;;;5.97;;
6860;SDS011;3469;47.060;15.460;2023-04-25T05:37:29;7.63;;;5.57;;
6860;SDS011;3469;47.060;15.460;2023-04-25T05:40:10;6.03;;;5.40;;
6860;SDS011;3469;47.060;15.460;2023-04-25T05:43:12;8.17;;;4.90;;
6860;SDS011;3469;47.060;15.460;2023-04-25T05:45:54;7.20;;;5.27;;
6860;SDS011;3469;47.060;15.460;2023-04-25T05:48:29;4.30;;;3.90;;
6860;SDS011;3469;47.060;15.460;2023-04-25T05:51:14;9.10;;;4.53;;
6860;SDS011;3469;47.060;15.460;2023-04-25T05:54:05;7.90;;;4.67;;
6860;SDS011;3469;47.060;15.460;2023-04-25T05:56:34;11.30;;;8.40;;
6860;SDS011;3469;47.060;15.460;2023-04-25T05:59:03;12.17;;;7.30;;
6860;SDS011;3469;47.060;15.460;2023-04-25T06:01:32;9.37;;;7.80;;
6860;SDS011;3469;47.060;15.460;2023-04-25T06:04:01;9.37;;;8.00;;
6860;SDS011;3469;47.060;15.460;2023-04-25T06:06:32;14.60;;;9.07;;
6860;SDS011;3469;47.060;15.460;2023-04-25T06:09:00;12.30;;;9.07;;
6860;SDS011;3469;47.060;15.460;2023-04-25T06:11:30;12.33;;;9.70;;
6860;SDS011;3469;47.060;15.460;2023-04-25T06:13:59;9.93;;;8.70;;
6860;SDS011;3469;47.060;15.460;2023-04-25T06:16:29;12.10;;;9.70;;
6860;SDS011;3469;47.060;15.460;2023-04-25T06:18:58;14.93;;;9.77;;
6860;SDS011;3469;47.060;15.460;2023-04-25T06:21:27;11.40;;;9.67;;
6860;SDS011;3469;47.060;15.460;2023-04-25T06:23:55;16.97;;;12.00;;
6860;SDS011;3469;47.060;15.460;2023-04-25T06:26:24;14.07;;;10.93;;
6860;SDS011;3469;47.060;15.460;2023-04-25T06:28:53;16.23;;;11.73;;
6860;SDS011;3469;47.060;15.460;2023-04-25T06:31:22;14.97;;;11.23;;
6860;SDS011;3469;47.060;15.460;2023-04-25T06:33:56;12.90;;;9.50;;
6860;SDS011;3469;47.060;15.460;2023-04-25T06:36:26;14.07;;;10.93;;
6860;SDS011;3469;47.060;15.460;2023-04-25T06:39:00;15.10;;;11.40;;
6860;SDS011;3469;47.060;15.460;2023-04-25T06:41:29;15.20;;;11.80;;
6860;SDS011;3469;47.060;15.460;2023-04-25T06:44:00;15.20;;;12.20;;
6860;SDS011;3469;47.060;15.460;2023-04-25T06:46:33;13.63;;;11.47;;
6860;SDS011;3469;47.060;15.460;2023-04-25T06:49:04;16.63;;;10.53;;
6860;SDS011;3469;47.060;15.460;2023-04-25T06:51:33;12.50;;;9.37;;
6860;SDS011;3469;47.060;15.460;2023-04-25T06:54:01;10.27;;;9.03;;
6860;SDS011;3469;47.060;15.460;2023-04-25T06:56:39;9.63;;;7.70;;
6860;SDS011;3469;47.060;15.460;2023-04-25T06:59:13;8.80;;;7.17;;
6860;SDS011;3469;47.060;15.460;2023-04-25T07:01:43;9.50;;;8.10;;
6860;SDS011;3469;47.060;15.460;2023-04-25T07:04:24;7.53;;;6.80;;
6860;SDS011;3469;47.060;15.460;2023-04-25T07:06:55;6.37;;;5.73;;
6860;SDS011;3469;47.060;15.460;2023-04-25T07:09:34;7.03;;;6.00;;
6860;SDS011;3469;47.060;15.460;2023-04-25T07:12:04;8.23;;;6.20;;
6860;SDS011;3469;47.060;15.460;2023-04-25T07:14:33;8.27;;;6.10;;
6860;SDS011;3469;47.060;15.460;2023-04-25T07:17:02;7.20;;;5.40;;
6860;SDS011;3469;47.060;15.460;2023-04-25T07:19:35;6.00;;;5.00;;
6860;SDS011;3469;47.060;15.460;2023-04-25T07:22:07;9.03;;;5.80;;
6860;SDS011;3469;47.060;15.460;2023-04-25T07:24:38;5.60;;;4.90;;
6860;SDS011;3469;47.060;15.460;2023-04-25T07:27:08;5.67;;;4.67;;
6860;SDS011;3469;47.060;15.460;2023-04-25T07:29:57;4.87;;;3.83;;
6860;SDS011;3469;47.060;15.460;2023-04-25T07:32:27;4.33;;;3.57;;
6860;SDS011;3469;47.060;15.460;2023-04-25T07:34:57;5.27;;;4.33;;
6860;SDS011;3469;47.060;15.460;2023-04-25T07:37:26;6.23;;;3.27;;
6860;SDS011;3469;47.060;15.460;2023-04-25T07:40:02;4.57;;;3.53;;
6860;SDS011;3469;47.060;15.460;2023-04-25T07:42:32;6.47;;;3.50;;
6860;SDS011;3469;47.060;15.460;2023-04-25T07:45:01;4.97;;;3.20;;
6860;SDS011;3469;47.060;15.460;2023-04-25T07:47:30;7.97;;;3.20;;
6860;SDS011;3469;47.060;15.460;2023-04-25T07:50:00;4.57;;;3.17;;
6860;SDS011;3469;47.060;15.460;2023-04-25T07:52:30;3.23;;;2.80;;
6860;SDS011;3469;47.060;15.460;2023-04-25T07:55:06;2.30;;;1.83;;
6860;SDS011;3469;47.060;15.460;2023-04-25T07:57:57;1.70;;;1.53;;
6860;SDS011;3469;47.060;15.460;2023-04-25T08:00:28;2.90;;;2.20;;
6860;SDS011;3469;47.060;15.460;2023-04-25T08:03:22;1.13;;;0.80;;
6860;SDS011;3469;47.060;15.460;2023-04-25T08:05:58;1.30;;;1.13;;
6860;SDS011;3469;47.060;15.460;2023-04-25T08:08:32;1.57;;;1.07;;
6860;SDS011;3469;47.060;15.460;2023-04-25T08:11:02;2.57;;;1.57;;
6860;SDS011;3469;47.060;15.460;2023-04-25T08:13:30;3.03;;;1.30;;
6860;SDS011;3469;47.060;15.460;2023-04-25T08:15:58;2.73;;;1.40;;
6860;SDS011;3469;47.060;15.460;2023-04-25T08:18:27;1.33;;;1.10;;
6860;SDS011;3469;47.060;15.460;2023-04-25T08:20:59;3.07;;;1.23;;
6860;SDS011;3469;47.060;15.460;2023-04-25T08:23:27;1.77;;;1.40;;
6860;SDS011;3469;47.060;15.460;2023-04-25T08:26:05;2.40;;;1.30;;
6860;SDS011;3469;47.060;15.460;2023-04-25T08:28:36;3.63;;;0.97;;
6860;SDS011;3469;47.060;15.460;2023-04-25T08:31:05;1.47;;;1.20;;
6860;SDS011;3469;47.060;15.460;2023-04-25T08:33:43;1.10;;;1.00;;
6860;SDS011;3469;47.060;15.460;2023-04-25T08:36:39;1.57;;;1.00;;
6860;SDS011;3469;47.060;15.460;2023-04-25T08:39:37;1.17;;;1.07;;
6860;SDS011;3469;47.060;15.460;2023-04-25T08:42:29;1.30;;;0.93;;
6860;SDS011;3469;47.060;15.460;2023-04-25T08:45:00;2.07;;;1.07;;
6860;SDS011;3469;47.060;15.460;2023-04-25T08:47:35;1.60;;;1.17;;
6860;SDS011;3469;47.060;15.460;2023-04-25T08:50:06;1.13;;;1.00;;
6860;SDS011;3469;47.060;15.460;2023-04-25T08:52:39;3.23;;;1.10;;
6860;SDS011;3469;47.060;15.460;2023-04-25T08:55:12;1.30;;;1.03;;
6860;SDS011;3469;47.060;15.460;2023-04-25T08:57:41;1.87;;;1.00;;
6860;SDS011;3469;47.060;15.460;2023-04-25T09:00:10;1.13;;;0.97;;
6860;SDS011;3469;47.060;15.460;2023-04-25T09:02:42;1.67;;;1.10;;
6860;SDS011;3469;47.060;15.460;2023-04-25T09:05:12;1.60;;;1.20;;
6860;SDS011;3469;47.060;15.460;2023-04-25T09:07:43;1.20;;;0.70;;
6860;SDS011;3469;47.060;15.460;2023-04-25T09:10:14;1.70;;;1.03;;
6860;SDS011;3469;47.060;15.460;2023-04-25T09:12:43;1.83;;;1.17;;
6860;SDS011;3469;47.060;15.460;2023-04-25T09:15:12;1.77;;;1.13;;
6860;SDS011;3469;47.060;15.460;2023-04-25T09:18:03;2.77;;;1.10;;
6860;SDS011;3469;47.060;15.460;2023-04-25T09:20:40;3.07;;;1.20;;
6860;SDS011;3469;47.060;15.460;2023-04-25T09:23:28;1.00;;;0.83;;
6860;SDS011;3469;47.060;15.460;2023-04-25T09:25:56;2.90;;;0.90;;
6860;SDS011;3469;47.060;15.460;2023-04-25T09:28:25;1.27;;;1.10;;
6860;SDS011;3469;47.060;15.460;2023-04-25T09:30:58;2.63;;;1.03;;
6860;SDS011;3469;47.060;15.460;2023-04-25T09:33:35;2.20;;;1.00;;
6860;SDS011;3469;47.060;15.460;2023-04-25T09:36:05;1.10;;;0.90;;
6860;SDS011;3469;47.060;15.460;2023-04-25T09:38:48;1.30;;;0.90;;
6860;SDS011;3469;47.060;15.460;2023-04-25T09:41:27;1.00;;;0.90;;
6860;SDS011;3469;47.060;15.460;2023-04-25T09:43:59;1.10;;;0.90;;
6860;SDS011;3469;47.060;15.460;2023-04-25T09:46:35;1.17;;;0.83;;
6860;SDS011;3469;47.060;15.460;2023-04-25T09:49:16;1.83;;;0.90;;
6860;SDS011;3469;47.060;15.460;2023-04-25T09:51:54;1.17;;;1.00;;
6860;SDS011;3469;47.060;15.460;2023-04-25T09:54:27;1.27;;;1.00;;
6860;SDS011;3469;47.060;15.460;2023-04-25T09:57:17;1.33;;;0.93;;
6860;SDS011;3469;47.060;15.460;2023-04-25T09:59:48;1.13;;;0.90;;
6860;SDS011;3469;47.060;15.460;2023-04-25T10:02:17;2.20;;;0.93;;
6860;SDS011;3469;47.060;15.460;2023-04-25T10:04:50;1.20;;;0.93;;
6860;SDS011;3469;47.060;15.460;2023-04-25T10:07:33;1.77;;;1.30;;
6860;SDS011;3469;47.060;15.460;2023-04-25T10:10:03;1.47;;;0.97;;
6860;SDS011;3469;47.060;15.460;2023-04-25T10:12:33;1.10;;;0.90;;
6860;SDS011;3469;47.060;15.460;2023-04-25T10:15:02;1.80;;;1.13;;
6860;SDS011;3469;47.060;15.460;2023-04-25T10:17:31;1.50;;;0.90;;
6860;SDS011;3469;47.060;15.460;2023-04-25T10:20:00;1.87;;;1.00;;
6860;SDS011;3469;47.060;15.460;2023-04-25T10:22:34;1.43;;;1.10;;
6860;SDS011;3469;47.060;15.460;2023-04-25T10:25:05;1.10;;;0.93;;
6860;SDS011;3469;47.060;15.460;2023-04-25T10:27:35;1.03;;;0.67;;
6860;SDS011;3469;47.060;15.460;2023-04-25T10:30:04;2.03;;;1.20;;
6860;SDS011;3469;47.060;15.460;2023-04-25T10:32:37;1.47;;;1.10;;
6860;SDS011;3469;47.060;15.460;2023-04-25T10:35:12;1.00;;;0.80;;
6860;SDS011;3469;47.060;15.460;2023-04-25T10:37:59;1.07;;;0.70;;
6860;SDS011;3469;47.060;15.460;2023-04-25T10:40:31;2.60;;;2.10;;
6860;SDS011;3469;47.060;15.460;2023-04-25T10:46:16;0.93;;;0.83;;
6860;SDS011;3469;47.060;15.460;2023-04-25T10:48:47;2.13;;;0.80;;
6860;SDS011;3469;47.060;15.460;2023-04-25T10:51:21;1.53;;;1.00;;
6860;SDS011;3469;47.060;15.460;2023-04-25T10:53:57;3.00;;;1.27;;
6860;SDS011;3469;47.060;15.460;2023-04-25T10:56:30;1.30;;;1.00;;
6860;SDS011;3469;47.060;15.460;2023-04-25T10:59:05;1.20;;;1.07;;
6860;SDS011;3469;47.060;15.460;2023-04-25T11:01:37;1.63;;;1.30;;
6860;SDS011;3469;47.060;15.460;2023-04-25T11:04:18;1.10;;;0.80;;
6860;SDS011;3469;47.060;15.460;2023-04-25T11:06:58;3.03;;;0.93;;
6860;SDS011;3469;47.060;15.460;2023-04-25T11:09:53;1.00;;;0.80;;
6860;SDS011;3469;47.060;15.460;2023-04-25T11:12:24;2.17;;;1.03;;
6860;SDS011;3469;47.060;15.460;2023-04-25T11:14:57;1.83;;;1.10;;
6860;SDS011;3469;47.060;15.460;2023-04-25T11:17:27;1.93;;;1.20;;
6860;SDS011;3469;47.060;15.460;2023-04-25T11:19:57;1.10;;;0.80;;
6860;SDS011;3469;47.060;15.460;2023-04-25T11:22:26;1.03;;;0.90;;
6860;SDS011;3469;47.060;15.460;2023-04-25T11:24:55;0.93;;;0.73;;
6860;SDS011;3469;47.060;15.460;2023-04-25T11:27:24;1.23;;;1.13;;
6860;SDS011;3469;47.060;15.460;2023-04-25T11:29:53;1.43;;;0.93;;
6860;SDS011;3469;47.060;15.460;2023-04-25T11:32:21;1.77;;;0.97;;
6860;SDS011;3469;47.060;15.460;2023-04-25T11:34:53;1.40;;;0.90;;
6860;SDS011;3469;47.060;15.460;2023-04-25T11:37:22;3.27;;;1.03;;
6860;SDS011;3469;47.060;15.460;2023-04-25T11:39:51;1.73;;;0.93;;
6860;SDS011;3469;47.060;15.460;2023-04-25T11:42:19;1.10;;;0.70;;
6860;SDS011;3469;47.060;15.460;2023-04-25T11:44:51;1.00;;;0.70;;
6860;SDS011;3469;47.060;15.460;2023-04-25T11:47:26;1.00;;;0.57;;
6860;SDS011;3469;47.060;15.460;2023-04-25T11:49:57;2.53;;;1.37;;
6860;SDS011;3469;47.060;15.460;2023-04-25T11:52:35;1.03;;;0.70;;
6860;SDS011;3469;47.060;15.460;2023-04-25T11:55:05;2.03;;;0.83;;
6860;SDS011;3469;47.060;15.460;2023-04-25T11:57:37;1.33;;;0.70;;
6860;SDS011;3469;47.060;15.460;2023-04-25T12:00:10;0.67;;;0.40;;
6860;SDS011;3469;47.060;15.460;2023-04-25T12:02:44;1.17;;;0.67;;
6860;SDS011;3469;47.060;15.460;2023-04-25T12:05:14;1.43;;;0.90;;
6860;SDS011;3469;47.060;15.460;2023-04-25T12:07:58;1.40;;;0.73;;
6860;SDS011;3469;47.060;15.460;2023-04-25T12:10:26;0.60;;;0.50;;
6860;SDS011;3469;47.060;15.460;2023-04-25T12:12:55;1.47;;;0.83;;
6860;SDS011;3469;47.060;15.460;2023-04-25T12:15:25;1.20;;;0.73;;
6860;SDS011;3469;47.060;15.460;2023-04-25T12:17:54;1.23;;;0.60;;
6860;SDS011;3469;47.060;15.460;2023-04-25T12:20:24;1.60;;;0.80;;
6860;SDS011;3469;47.060;15.460;2023-04-25T12:22:53;1.57;;;0.80;;
6860;SDS011;3469;47.060;15.460;2023-04-25T12:25:35;0.90;;;0.57;;
6860;SDS011;3469;47.060;15.460;2023-04-25T12:28:11;1.37;;;0.70;;
6860;SDS011;3469;47.060;15.460;2023-04-25T12:30:56;6.57;;;1.23;;
6860;SDS011;3469;47.060;15.460;2023-04-25T12:33:26;1.40;;;1.00;;
6860;SDS011;3469;47.060;15.460;2023-04-25T12:35:55;1.00;;;0.63;;
6860;SDS011;3469;47.060;15.460;2023-04-25T12:38:25;2.33;;;0.97;;
6860;SDS011;3469;47.060;15.460;2023-04-25T12:40:54;1.10;;;1.00;;
6860;SDS011;3469;47.060;15.460;2023-04-25T12:43:22;2.10;;;0.97;;
6860;SDS011;3469;47.060;15.460;2023-04-25T12:45:51;1.70;;;0.93;;
6860;SDS011;3469;47.060;15.460;2023-04-25T12:48:24;0.67;;;0.50;;
6860;SDS011;3469;47.060;15.460;2023-04-25T12:50:52;0.97;;;0.60;;
6860;SDS011;3469;47.060;15.460;2023-04-25T12:53:21;0.97;;;0.70;;
6860;SDS011;3469;47.060;15.460;2023-04-25T12:55:50;1.33;;;0.93;;
6860;SDS011;3469;47.060;15.460;2023-04-25T12:58:18;0.80;;;0.50;;
6860;SDS011;3469;47.060;15.460;2023-04-25T13:00:47;0.90;;;0.70;;
6860;SDS011;3469;47.060;15.460;2023-04-25T13:03:15;2.20;;;0.80;;
6860;SDS011;3469;47.060;15.460;2023-04-25T13:05:46;3.00;;;0.93;;
6860;SDS011;3469;47.060;15.460;2023-04-25T13:08:15;1.10;;;0.80;;
6860;SDS011;3469;47.060;15.460;2023-04-25T13:10:43;1.80;;;1.03;;
6860;SDS011;3469;47.060;15.460;2023-04-25T13:13:11;1.57;;;1.10;;
6860;SDS011;3469;47.060;15.460;2023-04-25T13:15:40;3.73;;;1.20;;
6860;SDS011;3469;47.060;15.460;2023-04-25T13:18:08;2.30;;;1.00;;
6860;SDS011;3469;47.060;15.460;2023-04-25T13:20:37;1.93;;;1.00;;
6860;SDS011;3469;47.060;15.460;2023-04-25T13:23:07;1.70;;;1.20;;
6860;SDS011;3469;47.060;15.460;2023-04-25T13:25:35;0.90;;;0.70;;
6860;SDS011;3469;47.060;15.460;2023-04-25T13:28:03;1.17;;;0.70;;
6860;SDS011;3469;47.060;15.460;2023-04-25T13:30:33;2.07;;;1.03;;
6860;SDS011;3469;47.060;15.460;2023-04-25T13:33:01;1.73;;;1.10;;
6860;SDS011;3469;47.060;15.460;2023-04-25T13:35:30;1.27;;;0.70;;
6860;SDS011;3469;47.060;15.460;2023-04-25T13:37:59;2.20;;;1.13;;
6860;SDS011;3469;47.060;15.460;2023-04-25T13:40:29;3.53;;;1.03;;
6860;SDS011;3469;47.060;15.460;2023-04-25T13:42:58;0.80;;;0.70;;
6860;SDS011;3469;47.060;15.460;2023-04-25T13:45:27;1.00;;;0.77;;
6860;SDS011;3469;47.060;15.460;2023-04-25T13:47:58;2.20;;;0.80;;
6860;SDS011;3469;47.060;15.460;2023-04-25T13:50:27;4.03;;;1.10;;
6860;SDS011;3469;47.060;15.460;2023-04-25T13:52:55;1.10;;;0.60;;
6860;SDS011;3469;47.060;15.460;2023-04-25T13:55:24;0.97;;;0.70;;
6860;SDS011;3469;47.060;15.460;2023-04-25T13:57:53;0.80;;;0.63;;
6860;SDS011;3469;47.060;15.460;2023-04-25T14:00:22;1.37;;;0.93;;
6860;SDS011;3469;47.060;15.460;2023-04-25T14:02:50;1.13;;;0.77;;
6860;SDS011;3469;47.060;15.460;2023-04-25T14:05:19;2.90;;;1.00;;
6860;SDS011;3469;47.060;15.460;2023-04-25T14:07:47;1.27;;;1.07;;
6860;SDS011;3469;47.060;15.460;2023-04-25T14:10:15;3.27;;;0.83;;
6860;SDS011;3469;47.060;15.460;2023-04-25T14:12:44;6.10;;;1.10;;
6860;SDS011;3469;47.060;15.460;2023-04-25T14:15:14;1.43;;;0.80;;
6860;SDS011;3469;47.060;15.460;2023-04-25T14:17:42;1.00;;;0.70;;
6860;SDS011;3469;47.060;15.460;2023-04-25T14:20:12;1.13;;;0.83;;
6860;SDS011;3469;47.060;15.460;2023-04-25T14:22:41;0.97;;;0.77;;
6860;SDS011;3469;47.060;15.460;2023-04-25T14:25:10;1.50;;;0.97;;
6860;SDS011;3469;47.060;15.460;2023-04-25T14:27:38;1.60;;;0.83;;
6860;SDS011;3469;47.060;15.460;2023-04-25T14:30:07;1.87;;;1.10;;
6860;SDS011;3469;47.060;15.460;2023-04-25T14:32:40;1.00;;;0.87;;
6860;SDS011;3469;47.060;15.460;2023-04-25T14:35:08;1.43;;;0.80;;
6860;SDS011;3469;47.060;15.460;2023-04-25T14:37:37;0.90;;;0.70;;
6860;SDS011;3469;47.060;15.460;2023-04-25T14:40:06;1.10;;;0.80;;
6860;SDS011;3469;47.060;15.460;2023-04-25T14:42:37;1.13;;;0.80;;
6860;SDS011;3469;47.060;15.460;2023-04-25T14:45:06;1.37;;;0.73;;
6860;SDS011;3469;47.060;15.460;2023-04-25T14:47:35;1.63;;;1.10;;
6860;SDS011;3469;47.060;15.460;2023-04-25T14:50:06;1.40;;;1.00;;
6860;SDS011;3469;47.060;15.460;2023-04-25T14:52:36;1.93;;;0.70;;
6860;SDS011;3469;47.060;15.460;2023-04-25T14:55:04;1.00;;;0.60;;
6860;SDS011;3469;47.060;15.460;2023-04-25T14:57:34;1.43;;;0.80;;
6860;SDS011;3469;47.060;15.460;2023-04-25T15:00:03;1.20;;;0.73;;
6860;SDS011;3469;47.060;15.460;2023-04-25T15:02:35;0.90;;;0.70;;
6860;SDS011;3469;47.060;15.460;2023-04-25T15:05:06;1.03;;;0.80;;
6860;SDS011;3469;47.060;15.460;2023-04-25T15:07:36;1.57;;;0.97;;
6860;SDS011;3469;47.060;15.460;2023-04-25T15:10:06;3.07;;;1.07;;
6860;SDS011;3469;47.060;15.460;2023-04-25T15:12:40;1.40;;;0.80;;
6860;SDS011;3469;47.060;15.460;2023-04-25T15:15:08;1.20;;;0.93;;
6860;SDS011;3469;47.060;15.460;2023-04-25T15:17:43;1.63;;;0.70;;
6860;SDS011;3469;47.060;15.460;2023-04-25T15:20:13;1.90;;;1.10;;
6860;SDS011;3469;47.060;15.460;2023-04-25T15:22:42;1.80;;;1.00;;
6860;SDS011;3469;47.060;15.460;2023-04-25T15:25:11;1.50;;;0.90;;
6860;SDS011;3469;47.060;15.460;2023-04-25T15:27:40;0.87;;;0.70;;
6860;SDS011;3469;47.060;15.460;2023-04-25T15:30:10;0.70;;;0.47;;
6860;SDS011;3469;47.060;15.460;2023-04-25T15:32:40;1.47;;;0.53;;
6860;SDS011;3469;47.060;15.460;2023-04-25T15:35:09;0.70;;;0.43;;